Time;durP1;ratioP1;P1;durP2;ratioP2;P2;SDS_P1;SDS_P2;PMS_P1;PMS_P2;Temp;Humidity;BMP_temperature;BMP_pressure;BME280_temperature;BME280_humidity;BME280_pressure;Samples;Min_cycle;Max_cycle;Signal;HPM_P1;HPM_P2
2022/06/06 00:02:22;;;;;;;7.85;4.63;;;;;;;;;;6184125;23;19998;-78
2022/06/06 00:04:48;;;;;;;6.18;4.93;;;;;;;;;;6184326;23;20049;-78
2022/06/06 00:07:14;;;;;;;7.43;5.15;;;;;;;;;;6183916;23;20011;-77
2022/06/06 00:09:40;;;;;;;5.75;4.78;;;;;;;;;;6184192;23;20016;-78
2022/06/06 00:12:06;;;;;;;8.02;4.80;;;;;;;;;;6185855;23;20001;-78
2022/06/06 00:14:33;;;;;;;8.27;5.10;;;;;;;;;;6186316;23;20001;-77
2022/06/06 00:17:00;;;;;;;7.25;4.78;;;;;;;;;;6186389;23;20001;-81
2022/06/06 00:19:26;;;;;;;6.10;5.50;;;;;;;;;;6185979;23;20068;-78
2022/06/06 00:21:52;;;;;;;5.32;4.93;;;;;;;;;;6186099;23;20031;-77
2022/06/06 00:24:18;;;;;;;8.80;4.60;;;;;;;;;;6185952;23;19997;-78
2022/06/06 00:26:44;;;;;;;6.43;5.15;;;;;;;;;;6186164;23;20060;-77
2022/06/06 00:29:13;;;;;;;7.10;4.85;;;;;;;;;;6185788;23;20008;-78
2022/06/06 00:37:11;;;;;;;6.03;4.75;;;;;;;;;;6186074;23;20557;-77
2022/06/06 00:39:37;;;;;;;7.70;6.00;;;;;;;;;;6185958;23;20089;-77
2022/06/06 00:42:11;;;;;;;8.52;5.55;;;;;;;;;;6186219;23;20005;-78
2022/06/06 00:44:37;;;;;;;11.85;5.63;;;;;;;;;;6185709;23;20004;-78
2022/06/06 00:47:04;;;;;;;7.10;5.88;;;;;;;;;;6186317;23;20001;-78
2022/06/06 00:49:35;;;;;;;11.68;6.82;;;;;;;;;;6185833;23;20012;-77
2022/06/06 00:52:02;;;;;;;6.63;5.47;;;;;;;;;;6185472;23;20017;-78
2022/06/06 00:54:29;;;;;;;8.80;5.80;;;;;;;;;;6185652;23;20058;-76
2022/06/06 00:56:58;;;;;;;7.28;5.85;;;;;;;;;;6185789;23;20013;-76
2022/06/06 00:59:26;;;;;;;6.60;5.93;;;;;;;;;;6185863;23;20011;-76
2022/06/06 01:01:53;;;;;;;7.78;6.00;;;;;;;;;;6185584;23;20060;-77
2022/06/06 01:04:21;;;;;;;10.15;5.80;;;;;;;;;;6185652;23;20032;-77
2022/06/06 01:06:47;;;;;;;7.50;5.70;;;;;;;;;;6185341;23;20072;-76
2022/06/06 01:09:14;;;;;;;8.90;5.40;;;;;;;;;;6185783;23;20040;-78
2022/06/06 01:11:42;;;;;;;7.85;6.18;;;;;;;;;;6185460;23;20016;-78
2022/06/06 01:14:11;;;;;;;6.53;5.70;;;;;;;;;;6185698;23;20422;-77
2022/06/06 01:16:55;;;;;;;7.68;6.30;;;;;;;;;;6185418;23;20005;-78
2022/06/06 01:19:42;;;;;;;8.65;6.45;;;;;;;;;;6185617;23;20080;-78
2022/06/06 01:22:08;;;;;;;7.38;5.97;;;;;;;;;;6169827;23;20008;-78
2022/06/06 01:24:37;;;;;;;8.13;6.38;;;;;;;;;;6185935;23;20081;-77
2022/06/06 01:27:13;;;;;;;8.38;6.72;;;;;;;;;;6185382;23;20337;-77
2022/06/06 01:29:49;;;;;;;6.70;6.07;;;;;;;;;;6185691;23;20005;-77
2022/06/06 01:32:19;;;;;;;10.23;6.32;;;;;;;;;;6185618;23;20025;-77
2022/06/06 01:34:48;;;;;;;8.50;6.65;;;;;;;;;;6184080;23;20021;-78
2022/06/06 01:37:32;;;;;;;7.30;6.10;;;;;;;;;;6184097;23;20437;-78
2022/06/06 01:39:59;;;;;;;8.45;7.18;;;;;;;;;;6185661;23;20035;-77
2022/06/06 01:42:31;;;;;;;8.38;6.63;;;;;;;;;;6185513;23;20001;-78
2022/06/06 01:44:57;;;;;;;10.32;6.70;;;;;;;;;;6183845;23;20005;-78
2022/06/06 01:47:26;;;;;;;7.80;6.28;;;;;;;;;;6185264;23;20001;-78
2022/06/06 01:49:55;;;;;;;8.63;6.90;;;;;;;;;;6185416;23;20005;-78
2022/06/06 01:52:21;;;;;;;7.95;6.60;;;;;;;;;;6184832;23;20072;-77
2022/06/06 01:54:47;;;;;;;9.85;6.70;;;;;;;;;;6185286;23;20005;-78
2022/06/06 01:57:15;;;;;;;9.30;6.68;;;;;;;;;;6185215;23;20009;-76
2022/06/06 01:59:41;;;;;;;11.75;7.68;;;;;;;;;;6185200;23;20009;-79
2022/06/06 02:02:09;;;;;;;10.45;6.85;;;;;;;;;;6185416;23;20397;-78
2022/06/06 02:04:35;;;;;;;9.10;7.43;;;;;;;;;;6185501;23;20009;-78
2022/06/06 02:07:01;;;;;;;8.77;7.13;;;;;;;;;;6185698;23;20005;-79
2022/06/06 02:09:31;;;;;;;12.10;6.93;;;;;;;;;;6185059;23;20001;-78
2022/06/06 02:11:58;;;;;;;8.15;6.88;;;;;;;;;;6185085;23;20036;-78
2022/06/06 02:14:24;;;;;;;10.77;7.55;;;;;;;;;;6184807;23;20013;-78
2022/06/06 02:16:50;;;;;;;11.38;7.68;;;;;;;;;;6185215;23;20007;-79
2022/06/06 02:19:16;;;;;;;13.95;7.30;;;;;;;;;;6185243;23;20449;-78
2022/06/06 02:21:43;;;;;;;9.55;7.00;;;;;;;;;;6184998;23;20012;-78
2022/06/06 02:24:09;;;;;;;11.88;7.28;;;;;;;;;;6185173;23;20558;-79
2022/06/06 02:26:35;;;;;;;8.05;6.88;;;;;;;;;;6185070;23;20012;-78
2022/06/06 02:29:01;;;;;;;8.00;5.85;;;;;;;;;;6185072;23;20101;-78
2022/06/06 02:31:28;;;;;;;8.05;6.93;;;;;;;;;;6184956;23;20141;-78
2022/06/06 02:33:55;;;;;;;11.23;7.40;;;;;;;;;;6184752;23;20013;-78
2022/06/06 02:36:21;;;;;;;7.88;6.13;;;;;;;;;;6185391;23;20456;-78
2022/06/06 02:38:47;;;;;;;8.35;6.82;;;;;;;;;;6184797;23;20005;-78
2022/06/06 02:41:13;;;;;;;8.63;6.40;;;;;;;;;;6185376;23;20005;-79
2022/06/06 02:43:40;;;;;;;10.80;7.18;;;;;;;;;;6184825;23;20005;-79
2022/06/06 02:46:10;;;;;;;9.90;7.38;;;;;;;;;;6185036;23;20001;-78
2022/06/06 02:48:36;;;;;;;8.00;6.28;;;;;;;;;;6184749;23;20001;-79
2022/06/06 02:51:02;;;;;;;10.85;6.85;;;;;;;;;;6183391;23;20027;-78
2022/06/06 02:53:28;;;;;;;9.43;7.70;;;;;;;;;;6184352;23;20380;-78
2022/06/06 02:55:55;;;;;;;8.80;6.78;;;;;;;;;;6184768;23;20373;-78
2022/06/06 02:58:22;;;;;;;11.75;9.00;;;;;;;;;;6184960;23;20383;-78
2022/06/06 03:00:48;;;;;;;9.18;7.40;;;;;;;;;;6183013;23;20013;-78
2022/06/06 03:03:15;;;;;;;11.38;7.80;;;;;;;;;;6184690;23;20009;-78
2022/06/06 03:05:41;;;;;;;9.52;7.82;;;;;;;;;;6184492;23;20333;-78
2022/06/06 03:08:30;;;;;;;8.90;8.02;;;;;;;;;;6184706;23;20023;-78
2022/06/06 03:11:12;;;;;;;9.55;7.57;;;;;;;;;;6173084;23;20088;-78
2022/06/06 03:13:56;;;;;;;10.75;7.53;;;;;;;;;;6184626;23;20033;-78
2022/06/06 03:22:33;;;;;;;9.27;7.63;;;;;;;;;;6184380;23;20020;-78
2022/06/06 03:25:12;;;;;;;11.82;8.77;;;;;;;;;;6184289;23;20031;-78
2022/06/06 03:27:57;;;;;;;8.75;7.13;;;;;;;;;;6182839;23;20456;-78
2022/06/06 03:30:41;;;;;;;10.07;8.10;;;;;;;;;;6184637;23;20001;-78
2022/06/06 03:33:26;;;;;;;10.25;8.57;;;;;;;;;;6184597;23;20034;-78
2022/06/06 03:35:55;;;;;;;12.30;8.45;;;;;;;;;;6185292;23;20013;-78
2022/06/06 03:38:40;;;;;;;8.60;7.70;;;;;;;;;;6184396;23;20001;-78
2022/06/06 03:41:18;;;;;;;12.25;8.57;;;;;;;;;;6184421;23;20000;-78
2022/06/06 03:43:44;;;;;;;9.80;7.85;;;;;;;;;;6184355;23;20033;-78
2022/06/06 03:46:10;;;;;;;12.13;10.77;;;;;;;;;;6183905;23;20037;-78
2022/06/06 03:48:55;;;;;;;17.45;14.93;;;;;;;;;;6184386;23;20390;-79
2022/06/06 03:51:32;;;;;;;9.80;8.30;;;;;;;;;;6183821;23;20011;-78
2022/06/06 03:54:01;;;;;;;12.68;9.05;;;;;;;;;;6184410;23;20432;-78
2022/06/06 03:56:37;;;;;;;10.10;8.77;;;;;;;;;;6184343;23;20075;-78
2022/06/06 03:59:03;;;;;;;16.70;12.73;;;;;;;;;;6184318;23;20001;-80
2022/06/06 04:01:31;;;;;;;11.05;8.93;;;;;;;;;;6184446;23;20005;-81
2022/06/06 04:03:58;;;;;;;11.20;7.70;;;;;;;;;;6184667;23;20009;-81
2022/06/06 04:06:28;;;;;;;11.02;8.18;;;;;;;;;;6184555;23;20084;-82
2022/06/06 04:08:54;;;;;;;10.68;7.82;;;;;;;;;;6184725;23;20030;-83
2022/06/06 04:11:23;;;;;;;10.18;7.75;;;;;;;;;;6182734;23;20092;-79
2022/06/06 04:14:08;;;;;;;11.70;8.00;;;;;;;;;;6184513;23;20060;-78
2022/06/06 04:16:55;;;;;;;9.77;7.88;;;;;;;;;;6184853;23;20001;-81
2022/06/06 04:19:39;;;;;;;10.82;7.63;;;;;;;;;;6184672;23;20001;-85
2022/06/06 04:22:08;;;;;;;10.98;8.27;;;;;;;;;;6184677;23;20009;-83
2022/06/06 04:24:53;;;;;;;14.18;8.25;;;;;;;;;;6184434;23;20076;-80
2022/06/06 04:27:33;;;;;;;9.75;7.72;;;;;;;;;;6184073;23;20005;-78
2022/06/06 04:30:18;;;;;;;11.77;7.93;;;;;;;;;;6184382;23;20008;-83
2022/06/06 04:32:45;;;;;;;9.65;7.78;;;;;;;;;;6183824;23;20184;-80
2022/06/06 04:35:17;;;;;;;8.25;7.32;;;;;;;;;;6184851;23;20005;-81
2022/06/06 04:38:02;;;;;;;10.02;7.97;;;;;;;;;;6184171;23;20016;-82
2022/06/06 04:40:38;;;;;;;11.00;7.05;;;;;;;;;;6184324;23;20001;-79
2022/06/06 04:43:08;;;;;;;9.07;7.20;;;;;;;;;;6182267;23;20085;-84
2022/06/06 04:45:53;;;;;;;12.18;7.93;;;;;;;;;;6184610;23;20051;-84
2022/06/06 04:48:20;;;;;;;9.80;7.10;;;;;;;;;;6184176;23;20005;-84
2022/06/06 04:50:47;;;;;;;9.63;7.35;;;;;;;;;;6184385;23;20051;-81
2022/06/06 04:53:15;;;;;;;10.73;7.72;;;;;;;;;;6182251;23;20020;-80
2022/06/06 04:55:42;;;;;;;12.68;8.38;;;;;;;;;;6184408;23;20001;-82
2022/06/06 04:58:08;;;;;;;13.52;8.50;;;;;;;;;;6185851;23;20005;-83
2022/06/06 05:00:35;;;;;;;11.60;8.52;;;;;;;;;;6186444;23;20441;-79
2022/06/06 05:03:05;;;;;;;10.30;6.85;;;;;;;;;;6186413;23;20002;-84
2022/06/06 05:05:40;;;;;;;11.48;7.68;;;;;;;;;;6185135;23;20009;-84
2022/06/06 05:08:06;;;;;;;10.05;6.95;;;;;;;;;;6186320;23;20080;-81
2022/06/06 05:10:53;;;;;;;16.50;8.05;;;;;;;;;;6186595;23;20314;-83
2022/06/06 05:13:38;;;;;;;10.20;8.05;;;;;;;;;;6186695;23;20060;-78
2022/06/06 05:16:04;;;;;;;11.48;7.63;;;;;;;;;;6186196;23;20144;-81
2022/06/06 05:18:48;;;;;;;9.02;7.57;;;;;;;;;;6185912;23;20329;-82
2022/06/06 05:21:14;;;;;;;11.07;8.30;;;;;;;;;;6185319;23;20012;-80
2022/06/06 05:23:58;;;;;;;13.30;7.90;;;;;;;;;;6184761;23;20016;-81
2022/06/06 05:26:43;;;;;;;10.52;6.70;;;;;;;;;;6185134;23;20048;-80
2022/06/06 05:29:28;;;;;;;30.55;8.25;;;;;;;;;;6185180;23;20028;-81
2022/06/06 05:32:03;;;;;;;13.02;6.78;;;;;;;;;;6184834;23;20005;-81
2022/06/06 05:34:36;;;;;;;30.30;26.65;;;;;;;;;;6181839;23;20322;-81
2022/06/06 05:37:07;;;;;;;34.40;28.73;;;;;;;;;;6182398;23;20017;-88
2022/06/06 05:39:52;;;;;;;29.45;26.33;;;;;;;;;;6160153;23;20005;-81
2022/06/06 05:42:23;;;;;;;13.85;12.35;;;;;;;;;;6184506;23;20008;-84
2022/06/06 05:44:59;;;;;;;11.82;8.95;;;;;;;;;;6158529;23;20020;-80
2022/06/06 05:47:44;;;;;;;13.30;8.02;;;;;;;;;;6184445;23;20009;-82
2022/06/06 05:50:28;;;;;;;9.75;6.40;;;;;;;;;;6185150;23;20016;-81
2022/06/06 05:53:13;;;;;;;12.52;7.57;;;;;;;;;;6183346;23;20020;-82
2022/06/06 05:55:46;;;;;;;25.85;21.00;;;;;;;;;;6184895;23;20005;-82
2022/06/06 05:58:32;;;;;;;29.52;26.35;;;;;;;;;;6185273;23;20067;-80
2022/06/06 06:01:04;;;;;;;42.20;37.83;;;;;;;;;;6183975;23;20084;-79
2022/06/06 06:03:34;;;;;;;21.15;17.05;;;;;;;;;;6184635;23;20441;-82
2022/06/06 06:06:13;;;;;;;16.85;10.77;;;;;;;;;;6184857;23;20005;-80
2022/06/06 06:09:05;;;;;;;10.82;9.32;;;;;;;;;;6184690;23;20005;-83
2022/06/06 06:11:34;;;;;;;16.10;8.65;;;;;;;;;;6183225;23;20120;-81
2022/06/06 06:14:09;;;;;;;13.02;9.05;;;;;;;;;;6184918;23;20013;-82
2022/06/06 06:16:39;;;;;;;9.02;7.72;;;;;;;;;;6184598;23;20029;-80
2022/06/06 06:19:08;;;;;;;10.27;7.28;;;;;;;;;;6184489;23;20444;-81
2022/06/06 06:21:53;;;;;;;8.77;7.20;;;;;;;;;;6183986;23;20020;-79
2022/06/06 06:24:24;;;;;;;9.43;6.88;;;;;;;;;;6184803;23;20032;-81
2022/06/06 06:26:52;;;;;;;12.73;7.38;;;;;;;;;;6183550;23;19997;-82
2022/06/06 06:29:18;;;;;;;8.85;7.07;;;;;;;;;;6185069;23;20001;-79
2022/06/06 06:31:56;;;;;;;10.98;7.55;;;;;;;;;;6184975;23;20005;-80
2022/06/06 06:34:41;;;;;;;8.95;7.22;;;;;;;;;;6183091;23;20427;-81
2022/06/06 06:37:14;;;;;;;10.65;7.03;;;;;;;;;;6184512;23;20009;-79
2022/06/06 06:39:45;;;;;;;9.60;7.20;;;;;;;;;;6184531;23;20013;-82
2022/06/06 06:42:30;;;;;;;12.10;7.60;;;;;;;;;;6184713;23;20012;-81
2022/06/06 06:45:03;;;;;;;9.10;6.65;;;;;;;;;;6184656;23;20009;-81
2022/06/06 06:47:30;;;;;;;9.23;7.17;;;;;;;;;;6184521;23;20084;-80
2022/06/06 06:50:15;;;;;;;10.23;6.43;;;;;;;;;;6183353;23;20234;-80
2022/06/06 06:52:42;;;;;;;11.73;7.22;;;;;;;;;;6167121;23;20020;-82
2022/06/06 06:55:18;;;;;;;156.13;141.15;;;;;;;;;;6151922;23;20013;-81
2022/06/06 06:57:56;;;;;;;27.13;24.20;;;;;;;;;;6154566;23;20005;-81
2022/06/06 07:00:23;;;;;;;16.55;14.82;;;;;;;;;;6153830;23;20001;-80
2022/06/06 07:09:14;;;;;;;11.10;7.30;;;;;;;;;;6153250;23;20464;-79
2022/06/06 07:11:58;;;;;;;9.82;6.88;;;;;;;;;;6154700;23;20005;-82
2022/06/06 07:14:43;;;;;;;9.30;7.03;;;;;;;;;;6155022;23;20006;-82
2022/06/06 07:17:09;;;;;;;12.95;8.55;;;;;;;;;;6154262;23;20001;-81
2022/06/06 07:19:54;;;;;;;16.63;14.48;;;;;;;;;;6154040;23;20088;-83
2022/06/06 07:22:21;;;;;;;15.40;13.20;;;;;;;;;;6154477;23;20012;-81
2022/06/06 07:24:51;;;;;;;13.40;9.18;;;;;;;;;;6154217;23;20012;-81
2022/06/06 07:27:17;;;;;;;11.60;8.48;;;;;;;;;;6154393;23;20009;-78
2022/06/06 07:29:44;;;;;;;10.43;6.75;;;;;;;;;;6154282;23;20012;-80
2022/06/06 07:32:28;;;;;;;12.13;8.43;;;;;;;;;;6154195;23;20429;-82
2022/06/06 07:35:01;;;;;;;13.73;8.68;;;;;;;;;;6154417;23;20065;-81
2022/06/06 07:37:27;;;;;;;10.95;7.05;;;;;;;;;;6154723;23;20009;-82
2022/06/06 07:40:01;;;;;;;65.80;24.45;;;;;;;;;;6153891;23;20008;-81
2022/06/06 07:42:27;;;;;;;57.67;22.42;;;;;;;;;;6154304;23;20001;-82
2022/06/06 07:45:06;;;;;;;51.88;19.77;;;;;;;;;;6154814;23;20006;-82
2022/06/06 07:47:51;;;;;;;86.20;33.22;;;;;;;;;;6157891;23;19997;-79
2022/06/06 07:50:23;;;;;;;25.10;12.52;;;;;;;;;;6154783;23;20084;-81
2022/06/06 07:52:59;;;;;;;82.38;60.38;;;;;;;;;;6172084;23;20044;-81
2022/06/06 07:55:33;;;;;;;51.05;23.65;;;;;;;;;;6183649;23;20046;-82
2022/06/06 07:58:18;;;;;;;40.90;16.88;;;;;;;;;;6183890;23;20027;-80
2022/06/06 08:00:47;;;;;;;22.80;10.20;;;;;;;;;;6183798;23;20491;-81
2022/06/06 08:03:27;;;;;;;21.27;9.50;;;;;;;;;;6183615;23;20068;-81
2022/06/06 08:06:12;;;;;;;14.18;7.35;;;;;;;;;;6184209;23;20056;-83
2022/06/06 08:08:57;;;;;;;10.55;5.60;;;;;;;;;;6183912;23;20012;-81
2022/06/06 08:11:33;;;;;;;17.65;6.72;;;;;;;;;;6183982;23;20001;-81
2022/06/06 08:14:04;;;;;;;12.88;6.50;;;;;;;;;;6183500;23;20023;-82
2022/06/06 08:16:33;;;;;;;11.10;5.95;;;;;;;;;;6184400;23;20324;-86
2022/06/06 08:19:18;;;;;;;9.73;5.20;;;;;;;;;;6183854;23;19997;-84
2022/06/06 08:21:46;;;;;;;12.70;7.40;;;;;;;;;;6184161;23;20437;-83
2022/06/06 08:24:26;;;;;;;13.57;5.57;;;;;;;;;;6183877;23;20425;-83
2022/06/06 08:26:53;;;;;;;10.77;5.10;;;;;;;;;;6183567;23;20015;-82
2022/06/06 08:29:20;;;;;;;10.95;5.63;;;;;;;;;;6184551;23;20029;-84
2022/06/06 08:31:46;;;;;;;11.15;5.13;;;;;;;;;;6184104;23;20417;-81
2022/06/06 08:34:12;;;;;;;9.05;4.57;;;;;;;;;;6185974;23;20021;-85
2022/06/06 08:36:48;;;;;;;10.27;5.05;;;;;;;;;;6186221;23;20067;-82
2022/06/06 08:39:17;;;;;;;18.40;7.63;;;;;;;;;;6185645;23;20005;-83
2022/06/06 08:42:02;;;;;;;10.13;5.18;;;;;;;;;;6186022;23;20036;-84
2022/06/06 08:44:49;;;;;;;8.65;5.40;;;;;;;;;;6186020;23;19997;-82
2022/06/06 08:47:34;;;;;;;8.38;4.90;;;;;;;;;;6185542;23;20048;-83
2022/06/06 08:53:03;;;;;;;8.15;5.00;;;;;;;;;;6184955;23;20487;-84
2022/06/06 08:55:48;;;;;;;11.93;5.53;;;;;;;;;;6183705;23;20401;-84
2022/06/06 08:58:34;;;;;;;10.82;4.80;;;;;;;;;;6185109;23;20085;-83
2022/06/06 09:01:20;;;;;;;9.60;5.18;;;;;;;;;;6183127;23;20100;-81
2022/06/06 09:04:04;;;;;;;8.38;4.68;;;;;;;;;;6185590;23;20005;-83
2022/06/06 09:07:00;;;;;;;12.07;6.40;;;;;;;;;;6185351;23;20032;-83
2022/06/06 09:09:44;;;;;;;7.15;5.00;;;;;;;;;;6140265;23;20020;-82
2022/06/06 09:12:35;;;;;;;10.95;6.50;;;;;;;;;;6188197;23;20102;-79
2022/06/06 09:15:20;;;;;;;11.80;4.65;;;;;;;;;;6184470;23;20083;-79
2022/06/06 09:17:47;;;;;;;8.73;4.43;;;;;;;;;;6185133;23;20329;-80
2022/06/06 09:20:17;;;;;;;9.27;3.55;;;;;;;;;;6185137;23;20005;-81
2022/06/06 09:22:47;;;;;;;8.95;3.33;;;;;;;;;;6185330;23;20072;-81
2022/06/06 09:25:31;;;;;;;6.43;3.10;;;;;;;;;;6184679;23;20052;-83
2022/06/06 09:28:16;;;;;;;11.27;3.72;;;;;;;;;;6185331;23;20441;-83
2022/06/06 09:31:02;;;;;;;9.20;3.65;;;;;;;;;;6185239;23;20123;-83
2022/06/06 09:33:50;;;;;;;12.70;7.50;;;;;;;;;;6183537;23;20013;-85
2022/06/06 09:36:38;;;;;;;9.15;4.53;;;;;;;;;;6184689;23;20456;-83
2022/06/06 09:39:09;;;;;;;8.73;3.58;;;;;;;;;;6167780;23;20039;-82
2022/06/06 09:41:40;;;;;;;8.13;3.70;;;;;;;;;;6184134;23;20001;-82
2022/06/06 09:44:12;;;;;;;9.02;4.13;;;;;;;;;;6184410;23;20012;-81
2022/06/06 09:52:38;;;;;;;5.82;2.78;;;;;;;;;;6184317;23;20035;-79
2022/06/06 10:01:17;;;;;;;10.40;4.00;;;;;;;;;;6183131;23;20019;-78
2022/06/06 10:03:58;;;;;;;7.68;3.50;;;;;;;;;;6183848;23;20072;-78
2022/06/06 10:06:43;;;;;;;12.65;5.97;;;;;;;;;;6183919;23;20001;-77
2022/06/06 10:09:12;;;;;;;8.95;4.00;;;;;;;;;;6184353;23;20111;-79
2022/06/06 10:11:58;;;;;;;8.32;3.63;;;;;;;;;;6183383;23;20339;-78
2022/06/06 10:14:43;;;;;;;13.20;5.88;;;;;;;;;;6184128;23;20013;-80
2022/06/06 10:17:27;;;;;;;8.55;5.00;;;;;;;;;;6184166;23;20001;-78
2022/06/06 10:19:54;;;;;;;13.10;3.55;;;;;;;;;;6184474;23;20008;-76
2022/06/06 10:22:39;;;;;;;11.43;3.00;;;;;;;;;;6183654;23;20033;-76
2022/06/06 10:25:23;;;;;;;10.95;2.97;;;;;;;;;;6185029;23;20009;-77
2022/06/06 10:28:04;;;;;;;9.18;3.10;;;;;;;;;;6184424;23;20011;-76
2022/06/06 10:30:42;;;;;;;9.00;3.67;;;;;;;;;;6184641;23;20421;-77
2022/06/06 10:33:27;;;;;;;8.52;3.17;;;;;;;;;;6185453;23;20044;-78
2022/06/06 10:35:53;;;;;;;10.95;3.42;;;;;;;;;;6185149;23;20009;-78
2022/06/06 10:38:38;;;;;;;14.23;3.83;;;;;;;;;;6185265;23;20019;-78
2022/06/06 10:41:10;;;;;;;11.85;3.78;;;;;;;;;;6184005;23;20515;-77
2022/06/06 10:43:42;;;;;;;10.75;3.95;;;;;;;;;;6183189;23;20013;-78
2022/06/06 10:46:11;;;;;;;9.10;3.08;;;;;;;;;;6183991;23;20068;-77
2022/06/06 10:48:43;;;;;;;14.02;3.28;;;;;;;;;;6183686;23;20001;-77
2022/06/06 10:51:37;;;;;;;8.90;2.47;;;;;;;;;;6184185;23;20440;-80
2022/06/06 10:54:03;;;;;;;10.57;3.83;;;;;;;;;;6184179;23;20016;-80
2022/06/06 10:56:47;;;;;;;9.82;3.30;;;;;;;;;;6183631;23;20032;-77
2022/06/06 10:59:31;;;;;;;9.55;2.78;;;;;;;;;;6183244;23;20063;-78
2022/06/06 11:01:57;;;;;;;13.18;3.30;;;;;;;;;;6185321;23;20079;-74
2022/06/06 11:04:42;;;;;;;16.90;5.57;;;;;;;;;;6181661;23;20009;-68
2022/06/06 11:07:08;;;;;;;103.75;33.20;;;;;;;;;;6183953;23;20008;-77
2022/06/06 11:09:51;;;;;;;51.50;15.95;;;;;;;;;;6183934;23;20008;-76
2022/06/06 11:12:29;;;;;;;23.13;7.47;;;;;;;;;;6183386;23;20008;-79
2022/06/06 11:14:56;;;;;;;14.57;4.35;;;;;;;;;;6182330;23;20226;-82
2022/06/06 11:17:33;;;;;;;18.48;6.00;;;;;;;;;;6184276;23;20336;-84
2022/06/06 11:20:11;;;;;;;12.05;4.05;;;;;;;;;;6184189;23;20337;-76
2022/06/06 11:22:39;;;;;;;12.63;3.88;;;;;;;;;;6183020;23;20009;-82
2022/06/06 11:25:15;;;;;;;13.35;3.40;;;;;;;;;;6182745;23;20092;-81
2022/06/06 11:28:00;;;;;;;16.83;11.38;;;;;;;;;;6181368;23;20440;-77
2022/06/06 11:30:41;;;;;;;10.80;4.10;;;;;;;;;;6184304;23;20028;-78
2022/06/06 11:33:18;;;;;;;11.13;4.03;;;;;;;;;;6184389;23;20016;-78
2022/06/06 11:35:50;;;;;;;11.68;3.58;;;;;;;;;;6184233;23;20417;-81
2022/06/06 11:38:19;;;;;;;10.43;3.80;;;;;;;;;;6183612;23;20020;-79
2022/06/06 11:41:04;;;;;;;11.20;3.10;;;;;;;;;;6182632;23;20008;-78
2022/06/06 11:43:52;;;;;;;14.30;3.88;;;;;;;;;;6182802;23;20376;-77
2022/06/06 11:46:25;;;;;;;9.45;3.40;;;;;;;;;;6183539;23;20001;-77
2022/06/06 11:49:04;;;;;;;10.57;3.60;;;;;;;;;;6182157;23;20009;-78
2022/06/06 11:51:36;;;;;;;8.13;2.90;;;;;;;;;;6177254;23;20233;-77
2022/06/06 11:54:25;;;;;;;12.20;5.78;;;;;;;;;;6180139;23;20043;-80
2022/06/06 11:56:51;;;;;;;14.48;4.63;;;;;;;;;;6180047;23;20336;-79
2022/06/06 11:59:21;;;;;;;9.65;3.97;;;;;;;;;;6180978;23;20004;-82
2022/06/06 12:01:50;;;;;;;11.80;4.82;;;;;;;;;;6180529;23;20013;-78
2022/06/06 12:04:37;;;;;;;11.38;5.03;;;;;;;;;;6178199;23;20008;-77
2022/06/06 12:07:21;;;;;;;10.00;4.32;;;;;;;;;;6181758;23;20005;-77
2022/06/06 12:09:50;;;;;;;11.02;3.50;;;;;;;;;;6184021;23;20011;-77
2022/06/06 12:12:37;;;;;;;10.23;3.78;;;;;;;;;;6183863;23;20040;-78
2022/06/06 12:15:16;;;;;;;11.05;3.58;;;;;;;;;;6183988;23;20060;-79
2022/06/06 12:18:01;;;;;;;8.40;3.33;;;;;;;;;;6182660;23;20455;-78
2022/06/06 12:20:55;;;;;;;9.73;3.55;;;;;;;;;;6184985;23;20310;-78
2022/06/06 12:23:40;;;;;;;13.55;2.80;;;;;;;;;;6182144;23;20012;-80
2022/06/06 12:26:21;;;;;;;9.77;2.75;;;;;;;;;;6184474;23;20020;-80
2022/06/06 12:29:06;;;;;;;12.88;3.85;;;;;;;;;;6157461;23;20475;-79
2022/06/06 12:31:36;;;;;;;6.32;2.88;;;;;;;;;;6183672;23;20096;-80
2022/06/06 12:34:20;;;;;;;8.68;3.30;;;;;;;;;;6184926;23;20020;-79
2022/06/06 12:37:08;;;;;;;12.80;5.50;;;;;;;;;;6185281;23;20430;-76
2022/06/06 12:39:46;;;;;;;16.00;7.90;;;;;;;;;;6184503;23;20361;-77
2022/06/06 12:42:30;;;;;;;9.23;3.25;;;;;;;;;;6184838;23;20008;-77
2022/06/06 12:45:00;;;;;;;10.15;3.42;;;;;;;;;;6185508;23;20008;-79
2022/06/06 12:47:44;;;;;;;10.95;4.75;;;;;;;;;;6185586;23;20463;-79
2022/06/06 12:50:13;;;;;;;9.52;3.78;;;;;;;;;;6183841;23;20012;-77
2022/06/06 12:52:43;;;;;;;10.60;4.18;;;;;;;;;;6156891;23;20025;-78
2022/06/06 12:55:34;;;;;;;9.77;3.63;;;;;;;;;;6184570;23;20433;-79
2022/06/06 12:58:12;;;;;;;11.73;4.78;;;;;;;;;;6184269;23;20337;-79
2022/06/06 13:03:45;;;;;;;12.32;4.80;;;;;;;;;;6185524;23;20075;-80
2022/06/06 13:06:30;;;;;;;19.08;13.93;;;;;;;;;;6183743;23;20012;-80
2022/06/06 13:08:59;;;;;;;14.80;9.00;;;;;;;;;;6184312;23;20016;-81
2022/06/06 13:11:44;;;;;;;18.45;11.85;;;;;;;;;;6185357;23;20016;-80
2022/06/06 13:14:29;;;;;;;12.75;9.18;;;;;;;;;;6184895;23;20017;-80
2022/06/06 13:17:13;;;;;;;11.90;4.13;;;;;;;;;;6185078;23;20001;-80
2022/06/06 13:19:58;;;;;;;17.40;4.15;;;;;;;;;;6184854;23;20052;-79
2022/06/06 13:22:27;;;;;;;8.65;3.53;;;;;;;;;;6185112;23;20059;-77
2022/06/06 13:24:56;;;;;;;10.70;3.03;;;;;;;;;;6184696;23;20008;-79
2022/06/06 13:27:55;;;;;;;10.38;2.70;;;;;;;;;;6182687;23;20016;-80
2022/06/06 13:30:26;;;;;;;11.25;3.17;;;;;;;;;;6185914;23;20001;-77
2022/06/06 13:33:04;;;;;;;8.65;2.97;;;;;;;;;;6184867;23;20341;-80
2022/06/06 13:35:39;;;;;;;10.45;2.42;;;;;;;;;;6184507;23;20005;-79
2022/06/06 13:38:11;;;;;;;12.05;2.30;;;;;;;;;;6185701;23;20011;-77
2022/06/06 13:40:41;;;;;;;6.80;2.30;;;;;;;;;;6184863;23;20084;-79
2022/06/06 13:43:12;;;;;;;6.78;2.40;;;;;;;;;;6184596;23;20005;-79
2022/06/06 13:45:53;;;;;;;8.95;2.67;;;;;;;;;;6186109;23;20005;-78
2022/06/06 13:48:34;;;;;;;8.40;2.42;;;;;;;;;;6184083;23;20005;-78
2022/06/06 13:51:20;;;;;;;6.07;2.45;;;;;;;;;;6185880;23;20001;-79
2022/06/06 13:54:04;;;;;;;9.10;5.25;;;;;;;;;;6185587;23;20044;-79
2022/06/06 13:56:50;;;;;;;7.15;1.83;;;;;;;;;;6185197;23;20025;-78
2022/06/06 13:59:35;;;;;;;6.80;1.90;;;;;;;;;;6185710;23;20032;-79
2022/06/06 14:02:07;;;;;;;8.63;1.90;;;;;;;;;;6184801;23;20060;-79
2022/06/06 14:04:52;;;;;;;7.30;1.77;;;;;;;;;;6184910;23;20028;-79
2022/06/06 14:07:18;;;;;;;6.72;1.50;;;;;;;;;;6185749;23;20012;-78
2022/06/06 14:09:46;;;;;;;7.15;2.15;;;;;;;;;;6185454;23;20005;-80
2022/06/06 14:12:32;;;;;;;11.43;2.17;;;;;;;;;;6184728;23;20068;-79
2022/06/06 14:15:01;;;;;;;7.82;1.20;;;;;;;;;;6185482;23;20033;-78
2022/06/06 14:17:31;;;;;;;5.05;1.33;;;;;;;;;;6184255;23;20020;-79
2022/06/06 14:20:01;;;;;;;3.60;0.73;;;;;;;;;;6185528;23;20008;-79
2022/06/06 14:22:28;;;;;;;2.45;0.80;;;;;;;;;;6185197;23;20009;-79
2022/06/06 14:24:55;;;;;;;8.85;2.70;;;;;;;;;;6185643;23;20028;-78
2022/06/06 14:27:22;;;;;;;6.30;1.05;;;;;;;;;;6185000;23;20012;-83
2022/06/06 14:29:51;;;;;;;4.13;1.15;;;;;;;;;;6183937;23;20092;-76
2022/06/06 14:32:23;;;;;;;7.88;1.67;;;;;;;;;;6185620;23;19997;-81
2022/06/06 14:34:51;;;;;;;7.13;1.75;;;;;;;;;;6185363;23;20017;-81
2022/06/06 14:37:18;;;;;;;8.10;1.70;;;;;;;;;;6185556;23;20076;-75
2022/06/06 14:39:50;;;;;;;9.40;1.73;;;;;;;;;;6184972;23;20001;-78
2022/06/06 14:42:17;;;;;;;7.00;1.33;;;;;;;;;;6184740;23;20012;-77
2022/06/06 14:44:46;;;;;;;5.72;1.20;;;;;;;;;;6184817;23;20005;-77
2022/06/06 14:47:17;;;;;;;4.88;1.73;;;;;;;;;;6186190;23;20381;-80
2022/06/06 14:50:45;;;;;;;6.30;1.17;;;;;;;;;;6184617;23;20009;-77
2022/06/06 14:52:35;;;;;;;5.85;1.17;;;;;;;;;;6182730;23;20170;-79
2022/06/06 14:55:02;;;;;;;6.32;1.10;;;;;;;;;;6184913;23;20311;-79
2022/06/06 14:57:30;;;;;;;6.25;2.05;;;;;;;;;;6184445;23;20036;-81
2022/06/06 14:59:58;;;;;;;7.28;1.55;;;;;;;;;;6184567;23;20005;-78
2022/06/06 15:02:29;;;;;;;7.50;2.35;;;;;;;;;;6184540;23;20009;-81
2022/06/06 15:05:14;;;;;;;9.45;2.20;;;;;;;;;;6184984;23;20008;-81
2022/06/06 15:07:53;;;;;;;8.20;2.40;;;;;;;;;;6184534;23;20008;-80
2022/06/06 15:10:33;;;;;;;6.90;1.70;;;;;;;;;;6184469;23;20080;-79
2022/06/06 15:13:00;;;;;;;8.07;2.05;;;;;;;;;;6184407;23;20112;-77
2022/06/06 15:15:29;;;;;;;7.88;2.40;;;;;;;;;;6184582;23;20004;-79
2022/06/06 15:17:55;;;;;;;5.88;1.65;;;;;;;;;;6184390;23;20001;-80
2022/06/06 15:20:52;;;;;;;9.38;2.00;;;;;;;;;;6184254;23;20381;-83
2022/06/06 15:23:21;;;;;;;6.53;2.22;;;;;;;;;;6184019;23;20001;-84
2022/06/06 15:26:06;;;;;;;7.00;3.03;;;;;;;;;;6183885;23;20036;-80
2022/06/06 15:28:35;;;;;;;8.13;4.57;;;;;;;;;;6184761;23;20029;-77
2022/06/06 15:31:04;;;;;;;6.82;2.25;;;;;;;;;;6184892;23;20448;-79
2022/06/06 15:33:48;;;;;;;5.00;2.13;;;;;;;;;;6184438;23;20074;-80
2022/06/06 15:36:33;;;;;;;5.90;2.60;;;;;;;;;;6184793;23;20013;-77
2022/06/06 15:38:59;;;;;;;11.40;8.68;;;;;;;;;;6184287;23;20058;-84
2022/06/06 15:41:25;;;;;;;10.30;5.88;;;;;;;;;;6182458;23;19997;-76
2022/06/06 15:43:51;;;;;;;7.93;3.15;;;;;;;;;;6182477;23;20013;-78
2022/06/06 15:46:17;;;;;;;6.55;4.03;;;;;;;;;;6184422;23;20392;-78
2022/06/06 15:48:46;;;;;;;9.18;3.60;;;;;;;;;;6184032;23;20036;-77
2022/06/06 15:51:12;;;;;;;10.38;3.85;;;;;;;;;;6184395;23;20035;-81
2022/06/06 15:53:57;;;;;;;7.20;3.75;;;;;;;;;;6182043;23;20036;-79
2022/06/06 15:56:23;;;;;;;7.60;4.57;;;;;;;;;;6181283;23;20013;-81